Time;durP1;ratioP1;P1;durP2;ratioP2;P2;SDS_P1;SDS_P2;PMS_P1;PMS_P2;Temp;Humidity;BMP_temperature;BMP_pressure;BME280_temperature;BME280_humidity;BME280_pressure;Samples;Min_cycle;Max_cycle;Signal;HPM_P1;HPM_P2
2023/04/18 00:02:15;;;;;;;10.33;9.63;;;;;;;10.05;100.00;92259.97;5111968;28;20234;-75
2023/04/18 00:04:41;;;;;;;11.17;10.23;;;;;;;10.19;100.00;92266.06;5114898;28;20260;-76
2023/04/18 00:07:07;;;;;;;10.50;9.80;;;;;;;10.05;100.00;92254.75;5111327;28;20222;-75
2023/04/18 00:09:32;;;;;;;11.63;10.93;;;;;;;10.17;100.00;92270.75;5111569;28;20189;-76
2023/04/18 00:11:57;;;;;;;9.73;9.13;;;;;;;10.25;100.00;92264.91;5111201;28;20184;-75
2023/04/18 00:14:23;;;;;;;10.27;9.63;;;;;;;10.14;100.00;92249.69;5111558;28;20685;-76
2023/04/18 00:16:49;;;;;;;10.47;9.70;;;;;;;10.25;100.00;92272.75;5112680;28;20197;-75
2023/04/18 00:19:14;;;;;;;10.57;9.87;;;;;;;10.08;100.00;92263.88;5109998;28;20255;-76
2023/04/18 00:21:43;;;;;;;9.87;9.17;;;;;;;10.05;100.00;92269.63;5111948;28;20224;-76
2023/04/18 00:24:09;;;;;;;12.83;11.53;;;;;;;9.95;100.00;92262.72;5110834;28;20231;-76
2023/04/18 00:26:35;;;;;;;11.83;10.83;;;;;;;9.96;100.00;92264.25;5111400;28;20216;-75
2023/04/18 00:29:02;;;;;;;12.10;11.30;;;;;;;10.13;100.00;92269.78;5111475;28;20219;-75
2023/04/18 00:31:27;;;;;;;11.93;11.13;;;;;;;10.05;100.00;92244.31;5110478;28;20227;-76
2023/04/18 00:33:53;;;;;;;12.03;11.23;;;;;;;10.15;100.00;92264.28;5110123;28;20207;-75
2023/04/18 00:36:18;;;;;;;11.57;10.70;;;;;;;10.22;100.00;92247.22;5111679;28;20279;-76
2023/04/18 00:38:43;;;;;;;11.73;10.57;;;;;;;10.31;100.00;92255.94;5111277;28;20196;-76
2023/04/18 00:41:09;;;;;;;11.00;10.30;;;;;;;10.10;100.00;92233.81;5110924;28;20220;-76
2023/04/18 00:43:34;;;;;;;13.70;12.50;;;;;;;10.41;100.00;92255.00;5110592;28;20255;-75
2023/04/18 00:46:00;;;;;;;12.60;11.00;;;;;;;10.24;100.00;92247.69;5111645;28;20311;-75
2023/04/18 00:48:26;;;;;;;11.90;11.00;;;;;;;10.14;100.00;92240.03;5110975;28;20223;-76
2023/04/18 00:50:52;;;;;;;10.33;9.57;;;;;;;10.00;100.00;92244.38;5109754;28;20224;-76
2023/04/18 00:53:18;;;;;;;13.07;12.17;;;;;;;10.07;100.00;92244.03;5109540;28;20207;-74
2023/04/18 00:55:43;;;;;;;11.13;10.23;;;;;;;10.12;100.00;92236.16;5111762;28;20254;-75
2023/04/18 00:58:09;;;;;;;11.43;10.53;;;;;;;10.25;100.00;92225.00;5110831;28;20196;-76
2023/04/18 01:00:35;;;;;;;10.60;9.90;;;;;;;10.29;100.00;92237.19;5109565;28;20288;-76
2023/04/18 01:03:01;;;;;;;10.43;9.73;;;;;;;10.24;100.00;92237.25;5108983;28;20300;-75
2023/04/18 01:05:26;;;;;;;11.63;10.53;;;;;;;10.09;100.00;92234.88;5108725;28;20220;-76
2023/04/18 01:07:52;;;;;;;11.17;10.43;;;;;;;10.07;100.00;92242.22;5110778;28;20210;-75
2023/04/18 01:10:17;;;;;;;11.63;10.90;;;;;;;10.19;100.00;92247.78;5109336;28;20217;-74
2023/04/18 01:12:43;;;;;;;10.33;9.63;;;;;;;10.12;100.00;92239.53;5110613;28;20185;-75
2023/04/18 01:15:08;;;;;;;11.20;10.30;;;;;;;10.06;100.00;92239.88;5110420;28;20216;-75
2023/04/18 01:17:34;;;;;;;11.50;10.50;;;;;;;10.05;100.00;92231.28;5110564;28;20203;-75
2023/04/18 01:20:00;;;;;;;10.43;9.73;;;;;;;10.06;100.00;92238.03;5109860;28;20230;-75
2023/04/18 01:22:27;;;;;;;11.07;10.13;;;;;;;10.13;100.00;92241.09;5109984;28;20296;-76
2023/04/18 01:24:53;;;;;;;11.20;10.47;;;;;;;10.17;100.00;92233.47;5109592;28;21208;-75
2023/04/18 01:27:18;;;;;;;10.57;9.77;;;;;;;10.31;100.00;92242.91;5110212;28;20188;-75
2023/04/18 01:29:44;;;;;;;11.30;10.47;;;;;;;10.26;100.00;92235.16;5108974;28;20223;-75
2023/04/18 01:32:09;;;;;;;11.33;10.63;;;;;;;10.01;100.00;92209.41;5109636;28;20241;-76
2023/04/18 01:34:35;;;;;;;11.70;10.90;;;;;;;9.97;100.00;92234.53;5109003;28;20313;-75
2023/04/18 01:37:00;;;;;;;11.97;11.17;;;;;;;9.85;100.00;92223.75;5108710;28;20572;-75
2023/04/18 01:39:27;;;;;;;11.33;10.53;;;;;;;10.03;100.00;92215.13;5107630;28;20867;-75
2023/04/18 01:41:52;;;;;;;11.17;10.37;;;;;;;10.21;100.00;92237.06;5108914;28;20184;-75
2023/04/18 01:44:17;;;;;;;11.80;11.00;;;;;;;10.20;100.00;92238.91;5110671;28;20218;-75
2023/04/18 01:46:43;;;;;;;11.13;10.43;;;;;;;10.18;100.00;92235.03;5109397;28;20226;-75
2023/04/18 01:49:08;;;;;;;11.63;10.83;;;;;;;10.13;100.00;92238.50;5110872;28;20237;-75
2023/04/18 01:51:34;;;;;;;11.77;10.77;;;;;;;10.09;100.00;92200.19;5110295;28;20233;-76
2023/04/18 01:53:59;;;;;;;12.13;11.27;;;;;;;10.35;100.00;92236.03;5109992;28;20175;-75
2023/04/18 01:56:25;;;;;;;12.33;11.37;;;;;;;10.14;100.00;92213.97;5110032;28;20260;-76
2023/04/18 01:58:50;;;;;;;11.90;11.00;;;;;;;9.99;100.00;92206.34;5109903;28;20188;-75
2023/04/18 02:01:15;;;;;;;12.30;11.43;;;;;;;9.67;100.00;92161.97;5110979;28;20237;-74
2023/04/18 02:03:41;;;;;;;12.40;11.17;;;;;;;10.10;100.00;92233.06;5108779;28;20211;-75
2023/04/18 02:06:06;;;;;;;11.87;10.80;;;;;;;9.83;100.00;92207.63;5107978;28;20252;-75
2023/04/18 02:08:34;;;;;;;12.00;11.30;;;;;;;10.12;100.00;92236.94;5110698;28;20176;-75
2023/04/18 02:11:00;;;;;;;11.10;10.10;;;;;;;9.95;100.00;92209.78;5108984;28;20296;-75
2023/04/18 02:13:26;;;;;;;11.27;10.43;;;;;;;10.26;100.00;92240.38;5109529;28;20227;-75
2023/04/18 02:15:51;;;;;;;10.33;9.60;;;;;;;10.04;100.00;92219.28;5108993;28;20216;-75
2023/04/18 02:18:17;;;;;;;10.57;9.97;;;;;;;10.14;100.00;92229.59;5109351;28;20200;-75
2023/04/18 02:20:42;;;;;;;11.47;10.43;;;;;;;10.20;100.00;92249.31;5109267;28;20213;-75
2023/04/18 02:23:08;;;;;;;11.33;10.50;;;;;;;10.13;100.00;92248.16;5112986;28;20289;-75
2023/04/18 02:25:33;;;;;;;10.43;9.73;;;;;;;10.14;100.00;92240.03;5113603;28;20276;-75
2023/04/18 02:27:59;;;;;;;12.10;10.83;;;;;;;10.16;100.00;92240.53;5114586;28;20208;-75
2023/04/18 02:30:25;;;;;;;12.53;11.40;;;;;;;10.17;100.00;92251.72;5112826;28;20264;-75
2023/04/18 02:32:55;;;;;;;12.60;11.50;;;;;;;10.07;100.00;92237.00;5114383;28;20188;-75
2023/04/18 02:35:21;;;;;;;11.47;10.67;;;;;;;10.16;100.00;92247.56;5112859;28;20227;-75
2023/04/18 02:37:47;;;;;;;11.27;10.57;;;;;;;10.05;100.00;92228.69;5114023;28;20183;-75
2023/04/18 02:40:12;;;;;;;11.20;10.50;;;;;;;10.09;100.00;92221.84;5118536;28;20220;-75
2023/04/18 02:42:38;;;;;;;11.10;10.37;;;;;;;10.19;100.00;92242.56;5113562;27;20204;-75
2023/04/18 02:45:04;;;;;;;12.17;11.27;;;;;;;10.17;100.00;92244.69;5113220;28;20232;-75
2023/04/18 02:47:30;;;;;;;12.37;11.57;;;;;;;9.99;100.00;92237.63;5111519;28;20232;-75
2023/04/18 02:49:55;;;;;;;14.23;13.13;;;;;;;9.86;100.00;92227.91;5112986;28;20216;-75
2023/04/18 02:52:21;;;;;;;14.80;13.37;;;;;;;9.79;100.00;92225.66;5112351;28;20197;-74
2023/04/18 02:54:46;;;;;;;14.27;13.07;;;;;;;9.96;100.00;92243.38;5112212;28;20238;-75
2023/04/18 02:57:11;;;;;;;13.80;12.63;;;;;;;9.90;100.00;92228.88;5113208;28;20196;-75
2023/04/18 02:59:37;;;;;;;14.83;13.53;;;;;;;9.90;100.00;92244.53;5112363;28;20180;-75
2023/04/18 03:02:02;;;;;;;16.93;15.13;;;;;;;9.87;100.00;92242.47;5112849;28;20242;-75
2023/04/18 03:04:27;;;;;;;16.70;15.23;;;;;;;9.94;100.00;92236.91;5112708;28;20228;-75
2023/04/18 03:06:54;;;;;;;18.40;16.63;;;;;;;10.06;100.00;92243.25;5113695;28;20189;-75
2023/04/18 03:09:20;;;;;;;17.43;15.90;;;;;;;10.15;100.00;92251.25;5112746;28;20210;-75
2023/04/18 03:11:45;;;;;;;16.90;15.37;;;;;;;10.00;100.00;92249.59;5112339;28;20284;-75
2023/04/18 03:14:11;;;;;;;19.00;15.50;;;;;;;9.92;100.00;92252.06;5113037;28;20197;-75
2023/04/18 03:16:36;;;;;;;18.70;16.10;;;;;;;9.96;100.00;92259.03;5112029;28;20220;-75
2023/04/18 03:19:01;;;;;;;17.90;15.90;;;;;;;9.84;100.00;92250.88;5112944;28;20184;-74
2023/04/18 03:21:27;;;;;;;16.93;15.23;;;;;;;9.91;100.00;92260.94;5112854;28;20227;-75
2023/04/18 03:23:52;;;;;;;17.00;15.17;;;;;;;10.01;100.00;92269.41;5113145;28;20215;-75
2023/04/18 03:26:18;;;;;;;17.40;15.57;;;;;;;10.15;100.00;92259.06;5111649;28;20220;-75
2023/04/18 03:28:44;;;;;;;18.07;16.17;;;;;;;9.80;100.00;92249.91;5112717;28;20233;-75
2023/04/18 03:31:09;;;;;;;18.60;16.03;;;;;;;9.85;100.00;92268.09;5111613;28;20224;-75
2023/04/18 03:33:34;;;;;;;18.03;16.17;;;;;;;9.67;100.00;92267.00;5111695;28;20200;-75
2023/04/18 03:36:00;;;;;;;19.53;16.00;;;;;;;9.71;100.00;92267.97;5111794;28;20205;-75
2023/04/18 03:38:25;;;;;;;18.40;16.57;;;;;;;9.70;100.00;92265.66;5112744;28;20220;-74
2023/04/18 03:40:51;;;;;;;18.30;16.40;;;;;;;9.70;100.00;92263.06;5111890;28;20251;-75
2023/04/18 03:43:18;;;;;;;17.90;15.73;;;;;;;9.64;100.00;92259.75;5112125;28;20246;-76
2023/04/18 03:45:43;;;;;;;18.10;16.30;;;;;;;9.70;100.00;92266.44;5108477;28;20236;-75
2023/04/18 03:48:08;;;;;;;17.27;15.60;;;;;;;9.84;100.00;92270.97;5108876;28;20192;-74
2023/04/18 03:50:34;;;;;;;17.93;16.00;;;;;;;9.79;100.00;92253.53;5110232;28;20252;-74
2023/04/18 03:52:59;;;;;;;17.73;16.03;;;;;;;9.92;100.00;92276.31;5109844;28;20199;-73
2023/04/18 03:55:25;;;;;;;17.43;15.73;;;;;;;9.92;100.00;92273.72;5111471;28;20276;-72
2023/04/18 03:57:50;;;;;;;17.70;16.00;;;;;;;9.79;100.00;92258.75;5110037;28;20211;-70
2023/04/18 04:00:16;;;;;;;16.77;15.33;;;;;;;9.95;100.00;92265.31;5109648;28;20276;-69
2023/04/18 04:02:41;;;;;;;17.03;15.43;;;;;;;9.78;100.00;92250.19;5109167;28;20244;-71
2023/04/18 04:05:07;;;;;;;17.57;15.30;;;;;;;9.86;100.00;92259.19;5108475;28;20224;-71
2023/04/18 04:07:33;;;;;;;15.83;14.40;;;;;;;9.90;100.00;92268.00;5109050;28;20229;-69
2023/04/18 04:09:58;;;;;;;16.10;14.73;;;;;;;10.03;100.00;92282.16;5110334;28;20224;-69
2023/04/18 04:12:24;;;;;;;17.17;15.70;;;;;;;9.97;100.00;92275.47;5109321;28;20201;-69
2023/04/18 04:14:49;;;;;;;15.27;13.97;;;;;;;10.07;100.00;92275.34;5108866;28;20228;-69
2023/04/18 04:17:15;;;;;;;17.50;15.80;;;;;;;10.25;100.00;92280.56;5110958;28;20229;-67
2023/04/18 04:19:41;;;;;;;16.07;14.67;;;;;;;9.90;100.00;92251.59;5108453;28;20239;-74
2023/04/18 04:22:06;;;;;;;16.20;14.73;;;;;;;10.06;100.00;92284.19;5110884;28;20187;-71
2023/04/18 04:24:32;;;;;;;16.87;15.30;;;;;;;10.25;100.00;92280.56;5108506;28;20216;-73
2023/04/18 04:26:59;;;;;;;15.90;14.53;;;;;;;10.04;100.00;92274.03;5110582;28;20243;-78
2023/04/18 04:29:25;;;;;;;16.27;14.73;;;;;;;10.09;100.00;92279.22;5113588;28;20193;-77
2023/04/18 04:31:50;;;;;;;15.93;14.37;;;;;;;9.87;100.00;92245.09;5110559;28;20221;-77
2023/04/18 04:34:16;;;;;;;15.40;13.90;;;;;;;10.18;100.00;92297.63;5111293;28;21088;-73
2023/04/18 04:36:42;;;;;;;15.10;13.70;;;;;;;10.18;100.00;92282.75;5110740;28;20226;-72
2023/04/18 04:39:08;;;;;;;16.90;15.33;;;;;;;10.39;100.00;92297.03;5111014;28;20185;-74
2023/04/18 04:41:36;;;;;;;16.33;14.63;;;;;;;10.46;100.00;92286.25;5110986;28;20331;-73
2023/04/18 04:44:03;;;;;;;17.13;15.40;;;;;;;10.52;100.00;92296.31;5110717;28;20740;-73
2023/04/18 04:46:29;;;;;;;19.10;15.77;;;;;;;10.57;100.00;92295.44;5109416;28;20234;-73
2023/04/18 04:48:54;;;;;;;17.17;15.47;;;;;;;10.46;100.00;92294.09;5110383;28;20189;-73
2023/04/18 04:51:20;;;;;;;16.43;14.87;;;;;;;10.64;100.00;92296.66;5109955;28;20229;-72
2023/04/18 04:53:45;;;;;;;15.87;14.23;;;;;;;10.63;100.00;92287.25;5108518;28;20193;-75
2023/04/18 04:56:11;;;;;;;15.50;14.20;;;;;;;11.05;100.00;92304.56;5106826;28;20481;-72
2023/04/18 04:58:36;;;;;;;17.30;15.63;;;;;;;11.57;100.00;92303.31;5108650;28;20184;-73
2023/04/18 05:01:02;;;;;;;14.83;13.53;;;;;;;12.16;100.00;92300.56;5108316;28;20223;-74
2023/04/18 05:03:27;;;;;;;15.33;13.83;;;;;;;12.45;100.00;92308.81;5108462;28;20242;-73
2023/04/18 05:05:53;;;;;;;14.43;13.03;;;;;;;12.56;98.62;92310.13;5109173;28;20219;-73
2023/04/18 05:08:18;;;;;;;16.47;14.83;;;;;;;11.85;100.00;92307.50;5109096;28;20262;-74
2023/04/18 05:10:48;;;;;;;17.93;16.13;;;;;;;11.60;100.00;92298.28;5108563;28;20225;-73
2023/04/18 05:13:13;;;;;;;17.90;16.13;;;;;;;11.60;100.00;92315.81;5109329;28;20754;-74
2023/04/18 05:15:39;;;;;;;18.20;16.30;;;;;;;11.21;100.00;92296.16;5108708;28;20253;-74
2023/04/18 05:18:05;;;;;;;17.43;15.83;;;;;;;11.15;100.00;92330.50;5108673;28;20971;-74
2023/04/18 05:20:30;;;;;;;17.00;15.27;;;;;;;11.15;100.00;92333.91;5108194;28;20228;-72
2023/04/18 05:22:55;;;;;;;17.37;15.67;;;;;;;11.01;100.00;92320.03;5107560;28;20204;-72
2023/04/18 05:25:21;;;;;;;19.97;16.97;;;;;;;11.09;100.00;92322.00;5107896;28;20275;-72
2023/04/18 05:27:46;;;;;;;20.03;17.07;;;;;;;11.03;100.00;92323.16;5110296;28;20206;-72
2023/04/18 05:30:12;;;;;;;18.07;16.37;;;;;;;10.95;100.00;92321.19;5107858;28;20232;-71
2023/04/18 05:32:40;;;;;;;19.50;17.40;;;;;;;10.95;100.00;92299.50;5109265;28;20203;-72
2023/04/18 05:35:06;;;;;;;18.17;16.17;;;;;;;11.54;100.00;92324.81;5108266;28;20288;-73
2023/04/18 05:37:31;;;;;;;18.87;17.07;;;;;;;11.80;100.00;92318.09;5109483;28;20212;-71
2023/04/18 05:39:57;;;;;;;17.83;16.13;;;;;;;12.22;100.00;92321.09;5107802;28;20222;-72
2023/04/18 05:42:22;;;;;;;17.63;15.83;;;;;;;12.43;100.00;92324.03;5109156;28;20191;-71
2023/04/18 05:44:47;;;;;;;18.63;16.93;;;;;;;12.44;100.00;92310.66;5108270;28;20271;-71
2023/04/18 05:47:13;;;;;;;17.27;14.73;;;;;;;12.40;100.00;92332.50;5107317;28;20195;-71
2023/04/18 05:49:38;;;;;;;16.47;14.93;;;;;;;12.09;100.00;92321.13;5108015;28;20194;-72
2023/04/18 05:52:04;;;;;;;15.97;14.47;;;;;;;11.95;100.00;92339.47;5109265;28;20321;-72
2023/04/18 05:54:29;;;;;;;17.93;16.23;;;;;;;11.67;100.00;92311.78;5106241;28;20188;-71
2023/04/18 05:56:56;;;;;;;16.20;14.60;;;;;;;11.76;100.00;92335.41;5110650;28;20185;-70
2023/04/18 05:59:21;;;;;;;15.90;14.23;;;;;;;11.73;100.00;92341.22;5108101;28;20187;-73
2023/04/18 06:01:48;;;;;;;17.73;14.87;;;;;;;11.67;100.00;92332.72;5110144;28;20237;-72
2023/04/18 06:04:14;;;;;;;17.10;15.40;;;;;;;11.64;100.00;92345.59;5108254;28;20214;-72
2023/04/18 06:06:39;;;;;;;17.97;14.97;;;;;;;11.63;100.00;92344.81;5107075;28;20289;-72
2023/04/18 06:09:05;;;;;;;15.93;14.33;;;;;;;11.77;100.00;92350.81;5108047;28;20186;-72
2023/04/18 06:11:32;;;;;;;17.87;16.07;;;;;;;11.56;100.00;92351.47;5107042;28;20228;-72
2023/04/18 06:13:58;;;;;;;16.80;15.10;;;;;;;11.43;100.00;92345.16;5108486;28;20232;-72
2023/04/18 06:16:23;;;;;;;18.23;16.27;;;;;;;11.51;100.00;92356.78;5108073;28;20220;-73
2023/04/18 06:18:49;;;;;;;17.97;15.60;;;;;;;11.49;100.00;92343.25;5107829;28;20181;-73
2023/04/18 06:21:14;;;;;;;18.20;16.30;;;;;;;11.60;100.00;92345.34;5108394;28;20219;-73
2023/04/18 06:23:40;;;;;;;17.20;15.50;;;;;;;11.52;100.00;92342.66;5108122;28;20211;-73
2023/04/18 06:26:06;;;;;;;18.83;16.30;;;;;;;11.51;100.00;92328.00;5108099;28;20236;-73
2023/04/18 06:28:31;;;;;;;19.83;15.87;;;;;;;11.64;100.00;92340.34;5108282;28;20199;-72
2023/04/18 06:30:57;;;;;;;17.40;15.73;;;;;;;11.43;100.00;92352.22;5108066;28;20231;-72
2023/04/18 06:33:22;;;;;;;18.07;16.20;;;;;;;11.80;100.00;92339.00;5107060;28;20191;-73
2023/04/18 06:35:48;;;;;;;16.20;14.50;;;;;;;12.14;100.00;92344.56;5107267;28;20227;-72
2023/04/18 06:38:13;;;;;;;15.70;14.20;;;;;;;12.29;99.10;92323.31;5107294;28;20249;-71
2023/04/18 06:40:39;;;;;;;16.40;14.80;;;;;;;12.50;96.56;92346.13;5107771;28;20239;-72
2023/04/18 06:43:04;;;;;;;15.60;13.90;;;;;;;12.40;95.64;92319.41;5107390;28;20206;-72
2023/04/18 06:45:30;;;;;;;16.80;15.13;;;;;;;12.84;94.69;92359.47;5107547;28;20231;-72
2023/04/18 06:47:58;;;;;;;16.37;14.83;;;;;;;12.19;97.67;92320.91;5106981;28;20192;-72
2023/04/18 06:50:26;;;;;;;16.27;14.67;;;;;;;12.30;99.55;92322.22;5106998;28;20241;-72
2023/04/18 06:52:52;;;;;;;15.93;14.63;;;;;;;12.62;98.84;92351.59;5107091;28;20192;-72
2023/04/18 06:55:17;;;;;;;15.10;13.70;;;;;;;12.35;99.58;92346.47;5107007;28;20235;-72
2023/04/18 06:57:43;;;;;;;16.43;15.03;;;;;;;12.65;92.97;92360.72;5107918;28;20192;-73
2023/04/18 07:00:09;;;;;;;16.47;15.00;;;;;;;12.69;91.55;92359.84;5109532;28;20218;-73
2023/04/18 07:02:36;;;;;;;15.13;13.73;;;;;;;12.60;94.11;92343.28;5105940;28;20757;-73
2023/04/18 07:05:02;;;;;;;15.97;14.53;;;;;;;12.70;92.06;92347.53;5107301;28;20226;-73
2023/04/18 07:07:27;;;;;;;19.37;15.80;;;;;;;13.19;90.99;92364.97;5109087;28;20202;-72
2023/04/18 07:09:53;;;;;;;14.43;13.13;;;;;;;13.39;91.16;92373.09;5111544;28;20306;-72
2023/04/18 07:12:19;;;;;;;14.83;13.23;;;;;;;13.53;86.89;92349.41;5112144;28;20263;-72
2023/04/18 07:14:45;;;;;;;15.83;14.23;;;;;;;13.43;89.57;92375.91;5110648;28;20208;-73
2023/04/18 07:17:10;;;;;;;15.17;13.77;;;;;;;13.52;91.90;92369.63;5114228;28;20198;-72
2023/04/18 07:19:36;;;;;;;14.97;13.57;;;;;;;13.41;92.28;92336.88;5114005;28;20263;-72
2023/04/18 07:22:01;;;;;;;15.13;13.60;;;;;;;13.18;89.86;92356.34;5111631;28;20188;-72
2023/04/18 07:24:27;;;;;;;16.20;14.63;;;;;;;13.16;90.28;92371.59;5112492;28;20215;-73
2023/04/18 07:26:52;;;;;;;15.50;13.83;;;;;;;13.68;88.19;92378.63;5114093;28;20192;-72
2023/04/18 07:29:18;;;;;;;15.40;14.10;;;;;;;14.30;88.16;92380.09;5112800;28;21155;-72
2023/04/18 07:31:44;;;;;;;14.57;13.37;;;;;;;14.93;83.57;92384.00;5111330;28;20412;-72
2023/04/18 07:34:10;;;;;;;14.13;12.93;;;;;;;14.49;83.34;92367.47;5112991;28;20274;-72
2023/04/18 07:36:36;;;;;;;13.93;12.60;;;;;;;15.18;81.12;92375.34;5112460;28;20227;-73
2023/04/18 07:39:01;;;;;;;14.17;13.07;;;;;;;15.55;79.06;92385.97;5111693;28;20239;-72
2023/04/18 07:41:27;;;;;;;14.33;13.03;;;;;;;15.51;79.48;92384.28;5112536;28;20232;-75
2023/04/18 07:43:52;;;;;;;14.03;12.90;;;;;;;15.53;77.37;92379.50;5114108;28;20216;-73
2023/04/18 07:46:17;;;;;;;13.83;12.70;;;;;;;15.31;77.54;92387.53;5113038;28;20228;-73
2023/04/18 07:48:43;;;;;;;13.47;12.17;;;;;;;15.09;78.48;92374.56;5112832;28;20203;-72
2023/04/18 07:51:10;;;;;;;13.37;12.37;;;;;;;15.17;76.50;92392.22;5110952;28;20223;-73
2023/04/18 07:53:36;;;;;;;13.73;12.63;;;;;;;14.81;76.95;92392.53;5111276;28;20204;-72
2023/04/18 07:56:01;;;;;;;13.53;12.30;;;;;;;14.08;80.11;92366.28;5112272;28;20241;-72
2023/04/18 07:58:27;;;;;;;13.23;12.13;;;;;;;13.77;83.85;92370.81;5113700;28;20180;-71
2023/04/18 08:00:52;;;;;;;13.13;12.03;;;;;;;14.20;83.39;92376.97;5112365;28;20216;-72
2023/04/18 08:03:17;;;;;;;13.93;12.77;;;;;;;14.41;82.01;92368.22;5112520;28;20242;-72
2023/04/18 08:05:43;;;;;;;13.23;12.13;;;;;;;13.66;81.10;92370.31;5111317;28;20215;-74
2023/04/18 08:08:10;;;;;;;12.83;11.67;;;;;;;14.12;78.87;92394.25;5110434;28;20180;-73
2023/04/18 08:10:35;;;;;;;13.27;12.20;;;;;;;14.43;81.25;92400.22;5110176;28;20220;-72
2023/04/18 08:13:01;;;;;;;12.43;11.33;;;;;;;14.62;78.64;92401.78;5110895;28;20183;-72
2023/04/18 08:15:27;;;;;;;12.20;11.30;;;;;;;14.92;73.74;92391.13;5108379;28;20236;-72
2023/04/18 08:17:53;;;;;;;12.97;11.87;;;;;;;15.16;70.50;92398.56;5108852;28;20989;-73
2023/04/18 08:20:19;;;;;;;13.17;11.67;;;;;;;15.30;73.92;92401.78;5110603;28;20224;-72
2023/04/18 08:22:45;;;;;;;12.43;11.50;;;;;;;15.57;72.53;92396.19;5111969;28;20181;-72
2023/04/18 08:25:10;;;;;;;12.60;11.43;;;;;;;15.71;71.92;92412.56;5112070;28;20219;-72
2023/04/18 08:27:36;;;;;;;12.80;11.60;;;;;;;14.76;73.64;92397.16;5112338;28;20184;-72
2023/04/18 08:30:03;;;;;;;11.83;11.03;;;;;;;14.56;73.22;92379.38;5111201;28;20231;-73
2023/04/18 08:32:31;;;;;;;12.43;11.60;;;;;;;14.51;71.65;92403.19;5111820;28;20184;-72
2023/04/18 08:34:56;;;;;;;13.40;12.30;;;;;;;13.91;78.82;92388.00;5110338;28;20245;-72
2023/04/18 08:37:21;;;;;;;12.93;11.83;;;;;;;14.09;76.91;92402.72;5110992;28;20187;-72
2023/04/18 08:39:47;;;;;;;12.33;11.23;;;;;;;13.76;79.69;92406.00;5109165;28;20313;-72
2023/04/18 08:42:15;;;;;;;12.73;11.77;;;;;;;13.75;79.26;92402.59;5111751;28;20179;-72
2023/04/18 08:44:41;;;;;;;12.80;11.87;;;;;;;13.79;76.05;92406.16;5109899;28;20207;-71
2023/04/18 08:47:11;;;;;;;13.43;12.23;;;;;;;13.47;80.33;92395.19;5109526;28;20206;-72
2023/04/18 08:49:37;;;;;;;12.87;11.77;;;;;;;13.60;78.19;92383.84;5111227;28;20179;-72
2023/04/18 08:52:13;;;;;;;12.77;11.77;;;;;;;14.05;79.67;92387.91;5109720;28;20203;-72
2023/04/18 08:54:44;;;;;;;14.53;13.23;;;;;;;14.42;75.48;92403.94;5109584;28;20212;-72
2023/04/18 08:57:15;;;;;;;12.83;11.90;;;;;;;14.52;72.41;92394.22;5109232;28;20247;-72
2023/04/18 08:59:44;;;;;;;11.50;10.60;;;;;;;14.25;76.76;92390.75;5110212;28;20179;-72
2023/04/18 09:02:10;;;;;;;14.33;13.17;;;;;;;14.84;75.66;92383.25;5110055;28;20231;-72
2023/04/18 09:04:47;;;;;;;13.87;12.83;;;;;;;15.27;70.79;92407.69;5110038;28;20219;-72
2023/04/18 09:07:17;;;;;;;12.63;11.33;;;;;;;15.47;69.28;92407.81;5109731;28;20227;-72
2023/04/18 09:09:45;;;;;;;13.60;12.40;;;;;;;15.34;74.14;92397.44;5107996;28;20247;-72
2023/04/18 09:12:13;;;;;;;14.03;12.77;;;;;;;15.65;72.99;92392.75;5109134;28;20176;-73
2023/04/18 09:14:44;;;;;;;12.80;11.83;;;;;;;15.90;72.10;92397.16;5109069;28;20239;-71
2023/04/18 09:17:12;;;;;;;13.10;12.00;;;;;;;15.88;71.23;92386.19;5109617;28;20781;-72
2023/04/18 09:19:45;;;;;;;12.90;11.90;;;;;;;15.98;69.74;92380.56;5110155;28;20188;-75
2023/04/18 09:22:12;;;;;;;12.83;11.60;;;;;;;16.23;68.73;92408.66;5110610;28;20188;-76
2023/04/18 09:24:37;;;;;;;13.60;12.60;;;;;;;15.71;69.95;92405.44;5109169;28;20235;-76
2023/04/18 09:27:14;;;;;;;12.13;11.23;;;;;;;15.51;69.24;92382.44;5109073;28;20191;-76
2023/04/18 09:29:50;;;;;;;11.73;10.73;;;;;;;15.86;66.56;92409.41;5108772;28;20621;-76
2023/04/18 09:32:28;;;;;;;11.37;10.67;;;;;;;15.51;66.54;92387.69;5108006;28;20180;-71
2023/04/18 09:35:01;;;;;;;11.80;10.93;;;;;;;15.55;65.57;92408.88;5109916;28;20220;-74
2023/04/18 09:37:28;;;;;;;12.93;12.00;;;;;;;15.12;67.54;92390.50;5109345;28;20678;-73
2023/04/18 09:39:54;;;;;;;14.03;12.80;;;;;;;14.89;69.79;92401.50;5109709;28;20223;-72
2023/04/18 09:42:21;;;;;;;11.43;10.60;;;;;;;14.90;67.77;92374.91;5110588;28;20221;-72
2023/04/18 09:45:07;;;;;;;12.50;11.57;;;;;;;14.83;68.71;92394.84;5110596;28;20230;-71
2023/04/18 09:47:35;;;;;;;11.93;11.03;;;;;;;15.05;67.14;92399.97;5126171;27;20215;-69
2023/04/18 09:50:05;;;;;;;11.23;10.43;;;;;;;15.03;68.53;92396.84;5109041;28;20224;-67
2023/04/18 09:52:37;;;;;;;12.80;11.60;;;;;;;15.09;67.93;92396.41;5110688;28;20184;-70
2023/04/18 09:55:05;;;;;;;12.30;11.30;;;;;;;15.20;67.66;92402.09;5109930;28;20227;-69
2023/04/18 09:57:32;;;;;;;10.23;9.63;;;;;;;14.34;69.49;92390.75;5110333;28;20188;-70
2023/04/18 10:00:09;;;;;;;12.70;11.70;;;;;;;14.70;68.23;92393.13;5108581;28;20224;-72
2023/04/18 10:02:45;;;;;;;11.90;10.93;;;;;;;14.37;70.21;92379.66;5107836;28;20223;-70
2023/04/18 10:05:12;;;;;;;12.87;10.80;;;;;;;14.43;70.57;92397.59;5109217;28;20229;-70
2023/04/18 10:07:38;;;;;;;12.73;11.73;;;;;;;14.46;72.56;92393.56;5110259;28;20183;-71
2023/04/18 10:10:05;;;;;;;12.23;11.23;;;;;;;14.43;69.78;92400.22;5109046;28;20271;-72
2023/04/18 10:12:31;;;;;;;15.13;13.43;;;;;;;14.29;72.09;92383.03;5108121;28;20319;-71
2023/04/18 10:14:57;;;;;;;13.27;12.17;;;;;;;14.59;69.55;92397.13;5107914;28;20223;-70
2023/04/18 10:17:22;;;;;;;12.80;11.60;;;;;;;14.71;69.77;92384.19;5109172;28;20198;-71
2023/04/18 10:20:04;;;;;;;13.37;12.17;;;;;;;15.03;69.95;92386.34;5107418;28;20212;-70
2023/04/18 10:22:30;;;;;;;13.60;12.50;;;;;;;14.97;69.83;92375.22;5110130;28;20268;-70
2023/04/18 10:24:56;;;;;;;14.07;12.77;;;;;;;14.94;73.43;92382.94;5107953;28;20682;-71
2023/04/18 10:27:54;;;;;;;11.67;10.67;;;;;;;14.64;68.99;92381.22;5109315;28;20200;-70
2023/04/18 10:30:40;;;;;;;13.50;12.40;;;;;;;15.02;70.19;92379.53;5109688;28;20242;-70
2023/04/18 10:33:24;;;;;;;11.37;10.57;;;;;;;15.10;68.59;92378.75;5108901;28;20218;-70
2023/04/18 10:36:00;;;;;;;13.20;12.10;;;;;;;15.43;65.78;92379.81;5109465;28;20223;-70
2023/04/18 10:38:26;;;;;;;14.20;12.77;;;;;;;15.98;67.07;92381.31;5109887;28;20245;-71
2023/04/18 10:40:51;;;;;;;11.47;10.60;;;;;;;16.31;63.68;92384.09;5108988;28;20224;-70
2023/04/18 10:43:17;;;;;;;12.73;11.73;;;;;;;16.45;62.29;92389.94;5112962;28;20228;-70
2023/04/18 10:45:42;;;;;;;10.83;10.03;;;;;;;16.41;63.26;92388.25;5112306;28;20253;-71
2023/04/18 10:48:26;;;;;;;10.80;10.00;;;;;;;16.59;66.06;92381.81;5114155;28;20180;-70
2023/04/18 10:51:13;;;;;;;10.37;9.63;;;;;;;16.92;60.60;92378.16;5112775;28;20223;-71
2023/04/18 10:53:59;;;;;;;10.83;9.93;;;;;;;16.87;59.92;92373.06;5113797;28;20200;-71
2023/04/18 10:56:26;;;;;;;10.50;9.80;;;;;;;17.02;59.95;92340.84;5112073;28;20227;-70
2023/04/18 10:58:52;;;;;;;9.60;9.00;;;;;;;17.09;56.49;92378.03;5112881;28;20784;-71
2023/04/18 11:01:29;;;;;;;11.53;10.73;;;;;;;17.31;59.58;92375.03;5112506;28;20305;-70
2023/04/18 11:03:55;;;;;;;10.20;9.40;;;;;;;17.29;64.09;92356.09;5111871;28;20219;-70
2023/04/18 11:06:21;;;;;;;9.07;8.47;;;;;;;17.80;58.42;92367.25;5113284;28;20230;-70
2023/04/18 11:08:50;;;;;;;10.47;9.53;;;;;;;17.52;58.72;92370.53;5112124;28;20196;-70
2023/04/18 11:11:16;;;;;;;9.80;9.07;;;;;;;17.30;57.41;92370.88;5112963;28;20235;-70
2023/04/18 11:13:56;;;;;;;10.80;10.10;;;;;;;16.77;57.96;92362.16;5112644;28;20196;-70